createdAt,value
2023-03-26T00:02:06.434Z,7.32
2023-03-26T00:07:03.136Z,6.53
2023-03-26T00:09:31.686Z,11.75
2023-03-26T00:11:59.762Z,8.77
2023-03-26T00:14:30.017Z,8.45
2023-03-26T00:16:59.522Z,9.70
2023-03-26T00:19:27.937Z,10.63
2023-03-26T00:21:57.713Z,8.30
2023-03-26T00:24:29.992Z,3.88
2023-03-26T00:26:58.013Z,10.20
2023-03-26T00:29:28.170Z,4.97
2023-03-26T00:31:56.350Z,6.22
2023-03-26T00:34:26.636Z,4.80
2023-03-26T00:36:55.556Z,8.60
2023-03-26T00:39:24.488Z,3.92
2023-03-26T00:41:54.799Z,7.78
2023-03-26T00:44:23.240Z,10.02
2023-03-26T00:46:51.445Z,8.43
2023-03-26T00:49:19.475Z,8.48
2023-03-26T00:51:48.857Z,7.97
2023-03-26T00:54:17.395Z,6.63
2023-03-26T00:56:45.747Z,6.18
2023-03-26T00:59:13.792Z,11.45
2023-03-26T01:01:41.968Z,8.75
2023-03-26T01:04:27.893Z,10.18
2023-03-26T01:07:02.778Z,10.02
2023-03-26T01:09:35.701Z,9.15
2023-03-26T01:12:08.178Z,6.30
2023-03-26T01:14:39.031Z,12.63
2023-03-26T01:17:09.218Z,7.22
2023-03-26T01:19:45.840Z,6.90
2023-03-26T01:22:18.872Z,8.10
2023-03-26T01:24:53.839Z,5.93
2023-03-26T01:27:32.124Z,8.65
2023-03-26T01:30:06.197Z,7.78
2023-03-26T01:32:48.526Z,6.50
2023-03-26T01:35:25.960Z,7.30
2023-03-26T01:38:15.461Z,7.55
2023-03-26T01:40:49.532Z,8.93
2023-03-26T01:43:33.396Z,6.35
2023-03-26T01:46:03.642Z,6.50
2023-03-26T01:48:34.743Z,8.60
2023-03-26T01:51:03.222Z,6.18
2023-03-26T01:53:33.434Z,7.30
2023-03-26T01:56:12.820Z,4.38
2023-03-26T01:58:53.206Z,5.35
2023-03-26T02:01:30.306Z,10.23
2023-03-26T02:04:05.976Z,8.55
2023-03-26T02:06:40.749Z,3.03
2023-03-26T02:11:41.850Z,7.63
2023-03-26T02:14:10.915Z,8.18
2023-03-26T02:16:38.879Z,9.00
2023-03-26T02:19:15.870Z,6.68
2023-03-26T02:21:45.949Z,7.93
2023-03-26T02:24:14.116Z,7.30
2023-03-26T02:26:43.938Z,7.55
2023-03-26T02:29:13.501Z,12.20
2023-03-26T02:31:44.463Z,9.52
2023-03-26T02:36:46.957Z,9.48
2023-03-26T02:39:15.288Z,5.03
2023-03-26T02:41:51.782Z,11.38
2023-03-26T02:44:20.020Z,3.13
2023-03-26T02:47:00.111Z,7.60
2023-03-26T02:49:47.732Z,8.25
2023-03-26T02:52:40.634Z,5.22
2023-03-26T02:57:39.471Z,7.13
2023-03-26T03:00:13.324Z,7.05
2023-03-26T03:02:48.262Z,5.15
2023-03-26T03:05:31.410Z,7.50
2023-03-26T03:08:24.248Z,5.50
2023-03-26T03:11:13.432Z,4.47
2023-03-26T03:13:51.754Z,7.68
2023-03-26T03:16:23.586Z,16.38
2023-03-26T03:18:57.580Z,38.65
2023-03-26T03:21:31.193Z,27.45
2023-03-26T03:24:00.179Z,14.43
2023-03-26T03:26:32.310Z,8.05
2023-03-26T03:29:12.194Z,8.15
2023-03-26T03:31:41.388Z,3.35
2023-03-26T03:34:20.050Z,10.38
2023-03-26T03:36:52.016Z,6.38
2023-03-26T03:39:31.676Z,6.05
2023-03-26T03:42:00.899Z,4.65
2023-03-26T03:44:31.091Z,8.63
2023-03-26T03:47:00.339Z,4.88
2023-03-26T03:49:28.431Z,4.55
2023-03-26T03:51:58.635Z,5.30
2023-03-26T03:54:32.846Z,6.28
2023-03-26T03:57:07.522Z,2.95
2023-03-26T03:59:37.044Z,7.18
2023-03-26T04:02:07.859Z,7.72
2023-03-26T04:04:57.533Z,3.72
2023-03-26T04:07:26.389Z,9.18
2023-03-26T04:10:16.484Z,6.22
2023-03-26T04:13:22.791Z,6.70
2023-03-26T04:15:58.473Z,7.60
2023-03-26T04:18:27.785Z,6.40
2023-03-26T04:21:02.609Z,9.02
2023-03-26T04:23:32.854Z,4.65
2023-03-26T04:26:10.652Z,5.22
2023-03-26T04:29:02.792Z,4.40
2023-03-26T04:31:34.264Z,5.78
2023-03-26T04:34:13.632Z,2.55
2023-03-26T04:36:54.437Z,4.72
2023-03-26T04:39:29.063Z,4.88
2023-03-26T04:42:33.392Z,5.03
2023-03-26T04:45:14.867Z,2.28
2023-03-26T04:47:48.736Z,3.70
2023-03-26T04:50:17.458Z,4.50
2023-03-26T04:52:46.250Z,7.50
2023-03-26T04:55:34.258Z,7.45
2023-03-26T04:58:10.330Z,4.28
2023-03-26T05:01:01.184Z,6.45
2023-03-26T05:03:45.763Z,4.80
2023-03-26T05:06:17.881Z,2.80
2023-03-26T05:08:46.632Z,5.25
2023-03-26T05:11:25.972Z,3.75
2023-03-26T05:13:54.446Z,5.68
2023-03-26T05:18:59.397Z,3.75
2023-03-26T05:21:33.239Z,4.15
2023-03-26T05:24:02.183Z,4.35
2023-03-26T05:26:30.721Z,7.78
2023-03-26T05:28:58.980Z,4.93
2023-03-26T05:31:40.472Z,3.10
2023-03-26T05:34:09.936Z,2.30
2023-03-26T05:36:38.045Z,4.28
2023-03-26T05:39:29.938Z,4.88
2023-03-26T05:42:00.816Z,4.15
2023-03-26T05:44:41.803Z,3.78
2023-03-26T05:47:19.620Z,8.98
2023-03-26T05:49:49.091Z,4.78
2023-03-26T05:52:19.081Z,4.80
2023-03-26T05:55:18.371Z,7.10
2023-03-26T05:58:04.696Z,4.55
2023-03-26T06:00:58.429Z,1.58
2023-03-26T06:03:34.539Z,4.63
2023-03-26T06:06:19.333Z,3.70
2023-03-26T06:09:01.350Z,3.97
2023-03-26T06:11:34.452Z,1.85
2023-03-26T06:14:04.671Z,2.38
2023-03-26T06:16:33.717Z,3.13
2023-03-26T06:19:14.993Z,5.57
2023-03-26T06:22:04.090Z,1.33
2023-03-26T06:24:39.764Z,1.05
2023-03-26T06:27:23.899Z,1.77
2023-03-26T06:30:13.289Z,4.68
2023-03-26T06:32:54.663Z,1.88
2023-03-26T06:35:26.696Z,3.05
2023-03-26T06:37:56.487Z,2.55
2023-03-26T06:40:25.028Z,2.25
2023-03-26T06:43:13.078Z,1.65
2023-03-26T06:45:59.510Z,0.75
2023-03-26T06:48:46.694Z,1.27
2023-03-26T06:51:21.746Z,1.40
2023-03-26T06:54:09.774Z,1.20
2023-03-26T06:56:46.626Z,2.28
2023-03-26T06:59:35.219Z,2.00
2023-03-26T07:02:21.965Z,1.15
2023-03-26T07:05:09.373Z,0.50
2023-03-26T07:07:56.084Z,1.25
2023-03-26T07:10:44.936Z,1.17
2023-03-26T07:13:16.578Z,1.25
2023-03-26T07:15:50.880Z,0.95
2023-03-26T07:18:27.882Z,0.55
2023-03-26T07:20:57.585Z,0.65
2023-03-26T07:23:29.946Z,2.05
2023-03-26T07:26:24.419Z,4.35
2023-03-26T07:29:14.652Z,1.58
2023-03-26T07:32:09.453Z,1.15
2023-03-26T07:35:03.054Z,0.40
2023-03-26T07:37:45.722Z,1.85
2023-03-26T07:40:54.466Z,0.32
2023-03-26T07:44:02.979Z,0.45
2023-03-26T07:47:02.318Z,0.40
2023-03-26T07:49:58.110Z,0.68
2023-03-26T07:52:44.949Z,0.38
2023-03-26T07:58:43.884Z,1.75
2023-03-26T08:01:42.155Z,2.13
2023-03-26T08:04:41.668Z,2.33
2023-03-26T08:07:53.325Z,1.40
2023-03-26T08:10:31.730Z,2.67
2023-03-26T08:13:17.608Z,0.85
2023-03-26T08:15:53.535Z,0.95
2023-03-26T08:18:36.089Z,0.68
2023-03-26T08:21:09.962Z,1.23
2023-03-26T08:23:50.287Z,1.05
2023-03-26T08:26:29.465Z,1.63
2023-03-26T08:29:07.356Z,2.38
2023-03-26T08:31:38.998Z,0.57
2023-03-26T08:34:11.769Z,0.30
2023-03-26T08:36:40.293Z,0.88
2023-03-26T08:39:09.187Z,0.93
2023-03-26T08:41:59.886Z,0.65
2023-03-26T08:45:04.266Z,1.27
2023-03-26T08:48:08.914Z,0.40
2023-03-26T08:50:52.693Z,1.88
2023-03-26T08:54:03.510Z,1.15
2023-03-26T08:56:40.697Z,0.60
2023-03-26T08:59:50.526Z,0.95
2023-03-26T09:02:46.788Z,0.98
2023-03-26T09:05:39.944Z,1.05
2023-03-26T09:08:53.781Z,0.32
2023-03-26T09:12:05.333Z,1.33
2023-03-26T09:15:12.928Z,0.63
2023-03-26T09:18:19.135Z,0.65
2023-03-26T09:21:08.920Z,0.60
2023-03-26T09:24:12.668Z,0.35
2023-03-26T09:26:47.983Z,1.00
2023-03-26T09:29:57.559Z,0.80
2023-03-26T09:33:07.398Z,1.85
2023-03-26T09:35:53.234Z,0.70
2023-03-26T09:38:46.319Z,1.95
2023-03-26T09:41:19.005Z,1.08
2023-03-26T09:44:16.629Z,1.25
2023-03-26T09:46:56.403Z,3.05
2023-03-26T09:49:47.493Z,1.45
2023-03-26T09:52:43.076Z,2.08
2023-03-26T09:55:34.783Z,0.60
2023-03-26T09:58:18.581Z,2.10
2023-03-26T10:00:52.652Z,3.15
2023-03-26T10:03:35.079Z,2.10
2023-03-26T10:06:15.840Z,1.15
2023-03-26T10:09:04.374Z,0.70
2023-03-26T10:11:44.980Z,2.75
2023-03-26T10:14:23.968Z,1.75
2023-03-26T10:17:05.042Z,1.13
2023-03-26T10:22:22.338Z,1.27
2023-03-26T10:25:22.465Z,3.72
2023-03-26T10:28:03.581Z,2.25
2023-03-26T10:36:01.338Z,3.05
2023-03-26T10:38:48.200Z,1.90
2023-03-26T10:41:22.447Z,1.60
2023-03-26T10:44:10.460Z,4.68
2023-03-26T10:46:56.711Z,2.25
2023-03-26T10:49:39.854Z,1.80
2023-03-26T10:52:10.805Z,2.72
2023-03-26T10:54:50.431Z,1.40
2023-03-26T10:57:30.505Z,1.40
2023-03-26T11:00:02.659Z,0.85
2023-03-26T11:02:36.969Z,0.75
2023-03-26T11:05:28.847Z,1.15
2023-03-26T11:08:03.466Z,0.95
2023-03-26T11:10:48.552Z,0.52
2023-03-26T11:13:25.590Z,0.85
2023-03-26T11:16:02.521Z,1.75
2023-03-26T11:18:41.288Z,0.82
2023-03-26T11:21:20.669Z,0.70
2023-03-26T11:24:05.251Z,2.35
2023-03-26T11:26:45.364Z,1.48
2023-03-26T11:29:30.987Z,0.35
2023-03-26T11:32:06.844Z,2.17
2023-03-26T11:34:40.158Z,0.93
2023-03-26T11:37:15.385Z,2.65
2023-03-26T11:39:51.017Z,0.52
2023-03-26T11:42:22.751Z,0.43
2023-03-26T11:44:56.853Z,1.50
2023-03-26T11:47:32.552Z,1.05
2023-03-26T11:50:03.600Z,0.57
2023-03-26T11:52:31.752Z,1.10
2023-03-26T11:57:31.113Z,1.83
2023-03-26T12:00:08.333Z,1.85
2023-03-26T12:05:15.718Z,4.10
2023-03-26T12:07:47.964Z,2.15
2023-03-26T12:10:26.051Z,1.00
2023-03-26T12:12:57.900Z,2.55
2023-03-26T12:15:28.723Z,0.65
2023-03-26T12:17:58.687Z,1.35
2023-03-26T12:20:36.645Z,1.17
2023-03-26T12:23:08.243Z,0.98
2023-03-26T12:25:38.959Z,1.00
2023-03-26T12:28:18.986Z,5.72
2023-03-26T12:31:02.338Z,1.08
2023-03-26T12:33:34.305Z,1.83
2023-03-26T12:36:20.207Z,2.70
2023-03-26T12:39:16.913Z,1.60
2023-03-26T12:44:42.568Z,2.78
2023-03-26T12:44:55.920Z,1.05
2023-03-26T12:48:00.898Z,1.65
2023-03-26T12:50:14.440Z,0.75
2023-03-26T12:53:09.389Z,2.22
2023-03-26T12:55:44.133Z,0.90
2023-03-26T13:01:03.106Z,1.38
2023-03-26T13:03:41.789Z,0.98
2023-03-26T13:06:24.161Z,0.85
2023-03-26T13:09:15.855Z,1.48
2023-03-26T13:11:56.128Z,1.77
2023-03-26T13:15:02.785Z,2.33
2023-03-26T13:17:41.082Z,1.83
2023-03-26T13:20:18.645Z,2.08
2023-03-26T13:22:56.385Z,1.90
2023-03-26T13:25:41.745Z,2.33
2023-03-26T13:28:19.851Z,3.08
2023-03-26T13:30:58.375Z,2.63
2023-03-26T13:33:43.644Z,2.40
2023-03-26T13:36:23.864Z,1.70
2023-03-26T13:39:07.622Z,1.75
2023-03-26T13:41:50.756Z,3.75
2023-03-26T13:44:30.170Z,2.40
2023-03-26T13:47:04.556Z,1.02
2023-03-26T13:49:38.680Z,1.90
2023-03-26T13:52:13.078Z,2.42
2023-03-26T13:54:44.854Z,1.80
2023-03-26T13:57:20.149Z,1.33
2023-03-26T13:59:55.594Z,1.90
2023-03-26T14:02:31.836Z,1.45
2023-03-26T14:05:08.134Z,1.10
2023-03-26T14:07:44.338Z,1.83
2023-03-26T14:10:16.737Z,1.60
2023-03-26T14:12:57.921Z,1.92
2023-03-26T14:18:08.053Z,2.60
2023-03-26T14:21:10.591Z,4.95
2023-03-26T14:24:09.738Z,3.47
2023-03-26T14:26:59.539Z,9.07
2023-03-26T14:29:56.705Z,12.38
2023-03-26T14:32:38.036Z,8.05
2023-03-26T14:35:21.768Z,5.78
2023-03-26T14:38:20.355Z,6.28
2023-03-26T14:40:58.830Z,6.22
2023-03-26T14:44:00.679Z,5.47
2023-03-26T14:46:53.193Z,5.45
2023-03-26T14:49:53.834Z,5.07
2023-03-26T14:52:29.600Z,2.70
2023-03-26T14:55:00.863Z,8.23
2023-03-26T14:58:08.624Z,8.85
2023-03-26T15:01:21.709Z,11.75
2023-03-26T15:04:25.979Z,4.18
2023-03-26T15:07:22.318Z,7.15
2023-03-26T15:10:29.679Z,6.53
2023-03-26T15:13:32.585Z,5.97
2023-03-26T15:16:28.311Z,1.58
2023-03-26T15:19:19.357Z,14.27
2023-03-26T15:22:37.334Z,9.90
2023-03-26T15:25:37.793Z,3.10
2023-03-26T15:31:31.797Z,10.65
2023-03-26T15:34:30.670Z,2.47
2023-03-26T15:37:28.927Z,4.97
2023-03-26T15:40:27.201Z,5.65
2023-03-26T15:43:04.117Z,3.80
2023-03-26T15:45:36.291Z,5.43
2023-03-26T15:48:21.847Z,7.38
2023-03-26T15:50:56.630Z,3.50
2023-03-26T15:53:35.653Z,1.48
2023-03-26T15:56:26.837Z,19.52
2023-03-26T15:59:02.297Z,5.25
2023-03-26T16:01:51.788Z,3.75
2023-03-26T16:04:30.495Z,4.22
2023-03-26T16:07:09.516Z,5.07
2023-03-26T16:09:53.213Z,6.25
2023-03-26T16:12:34.750Z,5.07
2023-03-26T16:15:29.525Z,12.05
2023-03-26T16:18:29.793Z,5.45
2023-03-26T16:21:31.961Z,11.60
2023-03-26T16:24:20.546Z,3.65
2023-03-26T16:27:08.260Z,7.88
2023-03-26T16:30:15.335Z,9.00
2023-03-26T16:32:46.697Z,4.65
2023-03-26T16:36:01.943Z,10.00
2023-03-26T16:38:54.149Z,2.70
2023-03-26T16:41:26.070Z,8.65
2023-03-26T16:44:06.480Z,6.35
2023-03-26T16:46:43.671Z,7.72
2023-03-26T16:49:25.658Z,3.53
2023-03-26T16:52:09.612Z,1.95
2023-03-26T16:54:49.309Z,1.10
2023-03-26T16:57:27.182Z,4.97
2023-03-26T17:00:24.949Z,1.55
2023-03-26T17:03:03.584Z,3.10
2023-03-26T17:05:38.655Z,5.25
2023-03-26T17:08:16.349Z,7.47
2023-03-26T17:10:57.452Z,3.70
2023-03-26T17:13:48.121Z,2.20
2023-03-26T17:16:23.766Z,7.10
2023-03-26T17:19:00.663Z,6.90
2023-03-26T17:21:45.910Z,1.95
2023-03-26T17:24:26.297Z,1.25
2023-03-26T17:27:25.522Z,3.10
2023-03-26T17:30:07.765Z,11.55
2023-03-26T17:32:58.929Z,2.30
2023-03-26T17:35:41.096Z,4.55
2023-03-26T17:39:08.971Z,2.13
2023-03-26T17:42:13.414Z,3.15
2023-03-26T17:44:46.882Z,2.33
2023-03-26T17:47:22.117Z,4.53
2023-03-26T17:49:52.585Z,4.43
2023-03-26T17:52:26.526Z,3.92
2023-03-26T17:54:58.013Z,5.00
2023-03-26T17:57:33.179Z,2.53
2023-03-26T18:00:07.251Z,3.40
2023-03-26T18:02:43.410Z,7.22
2023-03-26T18:05:15.533Z,2.50
2023-03-26T18:08:14.762Z,3.03
2023-03-26T18:10:58.012Z,2.97
2023-03-26T18:14:12.629Z,3.63
2023-03-26T18:16:45.730Z,4.03
2023-03-26T18:19:19.390Z,5.35
2023-03-26T18:21:50.750Z,2.03
2023-03-26T18:24:25.571Z,2.35
2023-03-26T18:29:26.414Z,5.88
2023-03-26T18:32:00.435Z,3.28
2023-03-26T18:34:31.716Z,3.95
2023-03-26T18:37:15.342Z,3.55
2023-03-26T18:39:45.764Z,0.85
2023-03-26T18:42:24.628Z,3.53
2023-03-26T18:44:54.074Z,2.95
2023-03-26T18:47:31.550Z,3.95
2023-03-26T18:50:01.154Z,6.75
2023-03-26T18:52:32.644Z,3.70
2023-03-26T18:55:03.801Z,3.50
2023-03-26T18:57:32.443Z,3.50
2023-03-26T19:00:18.471Z,4.00
2023-03-26T19:02:50.951Z,3.05
2023-03-26T19:05:21.278Z,5.28
2023-03-26T19:07:50.689Z,4.30
2023-03-26T19:10:22.304Z,8.63
2023-03-26T19:12:57.477Z,5.72
2023-03-26T19:15:28.168Z,7.22
2023-03-26T19:18:07.023Z,3.38
2023-03-26T19:20:41.690Z,3.67
2023-03-26T19:23:16.442Z,5.07
2023-03-26T19:25:48.645Z,0.73
2023-03-26T19:28:20.906Z,1.45
2023-03-26T19:30:53.299Z,7.35
2023-03-26T19:33:23.682Z,5.45
2023-03-26T19:36:03.298Z,8.45
2023-03-26T19:38:42.916Z,0.60
2023-03-26T19:41:19.763Z,8.52
2023-03-26T19:43:51.442Z,6.78
2023-03-26T19:46:22.688Z,10.80
2023-03-26T19:48:55.001Z,8.88
2023-03-26T19:51:25.816Z,3.80
2023-03-26T19:53:56.121Z,3.97
2023-03-26T19:56:24.415Z,7.97
2023-03-26T19:58:52.723Z,8.32
2023-03-26T20:03:53.735Z,4.18
2023-03-26T20:06:34.126Z,13.60
2023-03-26T20:09:11.198Z,1.70
2023-03-26T20:11:40.366Z,1.88
2023-03-26T20:14:13.881Z,2.28
2023-03-26T20:16:44.408Z,3.50
2023-03-26T20:19:31.745Z,1.20
2023-03-26T20:22:00.465Z,4.18
2023-03-26T20:24:34.347Z,2.65
2023-03-26T20:27:02.628Z,4.88
2023-03-26T20:29:30.805Z,5.35
2023-03-26T20:31:58.848Z,12.02
2023-03-26T20:34:27.951Z,3.03
2023-03-26T20:37:01.122Z,5.28
2023-03-26T20:39:29.689Z,6.13
2023-03-26T20:41:57.894Z,2.03
2023-03-26T20:44:26.868Z,1.95
2023-03-26T20:46:56.558Z,3.80
2023-03-26T20:49:25.202Z,0.50
2023-03-26T20:54:24.479Z,2.63
2023-03-26T20:56:54.199Z,1.35
2023-03-26T20:59:26.432Z,2.70
2023-03-26T21:01:56.888Z,2.20
2023-03-26T21:04:26.261Z,0.90
2023-03-26T21:06:57.863Z,3.38
2023-03-26T21:09:35.258Z,5.13
2023-03-26T21:12:07.135Z,6.38
2023-03-26T21:14:40.416Z,2.50
2023-03-26T21:17:14.994Z,2.85
2023-03-26T21:19:44.085Z,3.85
2023-03-26T21:22:25.897Z,0.85
2023-03-26T21:25:06.557Z,1.33
2023-03-26T21:27:45.945Z,7.80
2023-03-26T21:30:16.775Z,0.45
2023-03-26T21:32:46.637Z,5.53
2023-03-26T21:35:16.363Z,3.33
2023-03-26T21:37:48.638Z,2.70
2023-03-26T21:40:19.189Z,6.07
2023-03-26T21:42:49.452Z,1.35
2023-03-26T21:45:18.879Z,7.15
2023-03-26T21:47:47.774Z,3.95
2023-03-26T21:50:19.098Z,2.58
2023-03-26T21:52:50.756Z,2.38
2023-03-26T21:55:23.429Z,7.20
2023-03-26T21:58:24.057Z,1.40
2023-03-26T22:03:31.536Z,1.73
2023-03-26T22:06:06.924Z,4.40
2023-03-26T22:08:39.581Z,3.03
2023-03-26T22:11:11.287Z,3.00
2023-03-26T22:13:39.743Z,2.50
2023-03-26T22:16:10.689Z,2.70
2023-03-26T22:18:38.811Z,3.78
2023-03-26T22:21:07.620Z,0.22
2023-03-26T22:23:38.150Z,4.93
2023-03-26T22:26:08.148Z,2.10
2023-03-26T22:28:36.488Z,1.50
2023-03-26T22:31:08.885Z,0.85
2023-03-26T22:33:37.250Z,1.25
2023-03-26T22:36:05.907Z,1.00
2023-03-26T22:38:50.436Z,1.13
2023-03-26T22:41:19.834Z,0.90
2023-03-26T22:43:47.876Z,0.50
2023-03-26T22:46:15.981Z,0.95
2023-03-26T22:48:45.922Z,2.10
2023-03-26T22:51:13.881Z,0.55
2023-03-26T22:53:42.119Z,2.53
2023-03-26T22:56:11.063Z,0.60
2023-03-26T22:58:40.762Z,2.80
2023-03-26T23:01:11.757Z,0.35
2023-03-26T23:03:40.507Z,3.75
2023-03-26T23:06:12.028Z,3.78
2023-03-26T23:08:40.866Z,0.40
2023-03-26T23:11:10.683Z,0.98
2023-03-26T23:13:40.458Z,1.45
2023-03-26T23:16:10.126Z,1.42
2023-03-26T23:18:38.905Z,1.25
2023-03-26T23:21:12.053Z,0.55
2023-03-26T23:23:40.460Z,2.03
2023-03-26T23:26:09.250Z,0.85
2023-03-26T23:28:38.274Z,1.90
2023-03-26T23:31:09.424Z,1.27
2023-03-26T23:33:39.794Z,1.10
2023-03-26T23:36:09.784Z,2.55
2023-03-26T23:38:43.382Z,2.53
2023-03-26T23:41:15.318Z,1.65
2023-03-26T23:43:53.345Z,1.55
2023-03-26T23:46:25.657Z,0.47
2023-03-26T23:48:55.083Z,0.20
2023-03-26T23:51:24.119Z,2.35
2023-03-26T23:53:52.647Z,0.50
2023-03-26T23:58:49.610Z,0.38
